createdAt,value
2019-02-11T00:02:51.718Z,2.50
2019-02-11T00:05:19.674Z,2.00
2019-02-11T00:07:47.682Z,2.25
2019-02-11T00:13:23.174Z,1.60
2019-02-11T00:15:51.109Z,1.40
2019-02-11T00:18:19.114Z,1.60
2019-02-11T00:20:47.062Z,1.50
2019-02-11T00:23:15.018Z,1.50
2019-02-11T00:25:43.068Z,1.77
2019-02-11T00:28:10.986Z,1.43
2019-02-11T00:30:38.925Z,1.50
2019-02-11T00:33:06.929Z,1.70
2019-02-11T00:35:34.867Z,1.27
2019-02-11T00:38:02.806Z,1.13
2019-02-11T00:40:30.743Z,0.93
2019-02-11T00:42:58.682Z,0.90
2019-02-11T00:45:26.671Z,1.20
2019-02-11T00:47:54.615Z,1.00
2019-02-11T00:50:22.591Z,0.83
2019-02-11T00:52:50.559Z,0.80
2019-02-11T00:55:18.502Z,0.90
2019-02-11T00:57:46.440Z,0.90
2019-02-11T01:00:14.389Z,0.63
2019-02-11T01:02:42.379Z,0.80
2019-02-11T01:05:10.296Z,0.97
2019-02-11T01:07:38.286Z,1.10
2019-02-11T01:10:07.126Z,0.93
2019-02-11T01:12:35.135Z,0.90
2019-02-11T01:15:03.094Z,0.97
2019-02-11T01:17:31.077Z,0.90
2019-02-11T01:19:59.008Z,1.00
2019-02-11T01:22:26.972Z,1.40
2019-02-11T01:24:54.913Z,0.90
2019-02-11T01:27:22.873Z,0.70
2019-02-11T01:29:50.841Z,0.70
2019-02-11T01:32:18.752Z,0.63
2019-02-11T01:34:46.777Z,0.90
2019-02-11T01:37:14.751Z,0.77
2019-02-11T01:39:42.732Z,0.83
2019-02-11T01:42:10.689Z,0.83
2019-02-11T01:44:38.649Z,0.70
2019-02-11T01:47:06.661Z,0.60
2019-02-11T01:49:34.648Z,0.70
2019-02-11T01:52:02.610Z,0.70
2019-02-11T01:54:30.579Z,0.70
2019-02-11T01:56:58.578Z,1.10
2019-02-11T01:59:26.496Z,0.70
2019-02-11T02:01:54.470Z,0.60
2019-02-11T02:04:22.408Z,0.70
2019-02-11T02:06:50.349Z,0.80
2019-02-11T02:09:18.277Z,0.70
2019-02-11T02:11:46.207Z,0.70
2019-02-11T02:14:14.126Z,0.80
2019-02-11T02:16:42.151Z,0.93
2019-02-11T02:19:10.115Z,1.00
2019-02-11T02:21:38.023Z,1.30
2019-02-11T02:24:06.009Z,1.20
2019-02-11T02:26:33.921Z,1.10
2019-02-11T02:29:01.856Z,1.30
2019-02-11T02:31:29.776Z,1.30
2019-02-11T02:33:57.813Z,1.00
2019-02-11T02:36:25.813Z,0.70
2019-02-11T02:41:48.215Z,1.00
2019-02-11T02:44:16.173Z,0.90
2019-02-11T02:49:51.717Z,0.80
2019-02-11T02:55:27.164Z,1.07
2019-02-11T03:01:02.595Z,1.00
2019-02-11T03:03:30.569Z,1.03
2019-02-11T03:05:58.480Z,1.20
2019-02-11T03:08:26.435Z,1.50
2019-02-11T03:10:54.400Z,1.30
2019-02-11T03:13:22.370Z,1.90
2019-02-11T03:15:50.334Z,2.20
2019-02-11T03:18:18.310Z,2.50
2019-02-11T03:20:46.281Z,3.20
2019-02-11T03:23:14.228Z,3.40
2019-02-11T03:25:42.228Z,3.10
2019-02-11T03:28:10.187Z,4.00
2019-02-11T03:30:38.132Z,5.20
2019-02-11T03:33:06.065Z,5.10
2019-02-11T03:35:34.106Z,4.47
2019-02-11T03:40:56.314Z,4.40
2019-02-11T03:43:24.386Z,5.50
2019-02-11T03:48:59.894Z,4.93
2019-02-11T03:51:27.864Z,4.00
2019-02-11T03:59:57.062Z,5.43
2019-02-11T04:02:25.012Z,3.77
2019-02-11T04:04:53.006Z,4.10
2019-02-11T04:07:20.924Z,3.47
2019-02-11T04:09:48.920Z,3.43
2019-02-11T04:12:16.907Z,2.80
2019-02-11T04:15:04.012Z,3.43
2019-02-11T04:17:32.029Z,2.97
2019-02-11T04:19:59.990Z,3.43
2019-02-11T04:22:27.923Z,3.23
2019-02-11T04:24:55.920Z,2.23
2019-02-11T04:27:23.920Z,3.17
2019-02-11T04:29:51.922Z,3.77
2019-02-11T04:32:20.062Z,2.53
2019-02-11T04:34:48.028Z,2.63
2019-02-11T04:37:16.103Z,2.37
2019-02-11T04:39:44.087Z,2.50
2019-02-11T04:44:50.765Z,2.00
2019-02-11T04:47:18.760Z,2.93
2019-02-11T04:52:54.371Z,2.07
2019-02-11T04:55:22.448Z,2.33
2019-02-11T05:00:44.297Z,2.13
2019-02-11T05:03:12.246Z,1.97
2019-02-11T05:05:40.235Z,3.33
2019-02-11T05:11:02.498Z,3.10
2019-02-11T05:18:39.398Z,3.27
2019-02-11T05:21:07.365Z,2.47
2019-02-11T05:23:35.388Z,2.90
2019-02-11T05:29:10.916Z,3.17
2019-02-11T05:31:38.917Z,3.10
2019-02-11T05:34:06.869Z,3.87
2019-02-11T05:36:34.881Z,3.20
2019-02-11T05:41:56.491Z,3.10
2019-02-11T05:44:24.462Z,3.97
2019-02-11T05:46:52.433Z,2.53
2019-02-11T05:49:20.373Z,2.57
2019-02-11T05:51:48.368Z,3.00
2019-02-11T05:54:16.425Z,2.50
2019-02-11T05:59:38.523Z,2.47
2019-02-11T06:05:00.237Z,3.23
2019-02-11T06:07:29.849Z,2.83
2019-02-11T06:13:05.354Z,3.60
2019-02-11T06:18:41.019Z,3.67
2019-02-11T06:21:08.921Z,2.60
2019-02-11T06:26:30.817Z,2.67
2019-02-11T06:28:58.792Z,3.03
2019-02-11T06:34:20.793Z,2.33
2019-02-11T06:36:48.718Z,3.03
2019-02-11T06:42:11.636Z,3.97
2019-02-11T06:47:34.980Z,2.90
2019-02-11T06:50:14.612Z,3.27
2019-02-11T06:55:21.240Z,3.87
2019-02-11T07:00:56.739Z,3.00
2019-02-11T07:06:32.262Z,2.70
2019-02-11T07:09:00.260Z,2.57
2019-02-11T07:11:28.213Z,2.80
2019-02-11T07:17:03.655Z,3.07
2019-02-11T07:19:31.641Z,2.70
2019-02-11T07:21:59.645Z,5.70
2019-02-11T07:24:27.602Z,3.50
2019-02-11T07:29:30.386Z,2.43
2019-02-11T07:31:58.354Z,2.60
2019-02-11T07:37:20.744Z,2.80
2019-02-11T07:39:48.705Z,2.80
2019-02-11T07:42:35.677Z,3.20
2019-02-11T07:47:44.455Z,2.80
2019-02-11T07:50:12.410Z,3.07
2019-02-11T07:55:34.720Z,2.13
2019-02-11T07:58:02.732Z,2.47
2019-02-11T08:03:24.783Z,2.87
2019-02-11T08:05:52.799Z,2.70
2019-02-11T08:08:20.862Z,2.40
2019-02-11T08:10:48.938Z,2.40
2019-02-11T08:13:16.912Z,2.13
2019-02-11T08:16:04.027Z,2.30
2019-02-11T08:18:31.954Z,3.13
2019-02-11T08:23:54.033Z,2.10
2019-02-11T08:26:21.971Z,2.50
2019-02-11T08:28:49.961Z,2.40
2019-02-11T08:34:11.906Z,3.17
2019-02-11T08:36:39.858Z,2.23
2019-02-11T08:41:42.866Z,1.83
2019-02-11T08:47:05.210Z,2.37
2019-02-11T08:49:33.313Z,3.07
2019-02-11T08:52:01.493Z,2.27
2019-02-11T08:54:29.512Z,2.40
2019-02-11T08:56:57.552Z,3.10
2019-02-11T08:59:27.186Z,3.97
2019-02-11T09:01:55.158Z,2.33
2019-02-11T09:04:23.168Z,2.20
2019-02-11T09:06:51.133Z,3.13
2019-02-11T09:09:19.128Z,2.40
2019-02-11T09:11:47.114Z,3.33
2019-02-11T09:14:15.105Z,2.77
2019-02-11T09:16:43.069Z,2.93
2019-02-11T09:19:11.078Z,3.07
2019-02-11T09:21:39.192Z,2.90
2019-02-11T09:24:07.174Z,4.60
2019-02-11T09:26:35.167Z,2.37
2019-02-11T09:34:45.380Z,3.93
2019-02-11T09:37:13.344Z,3.30
2019-02-11T09:39:41.349Z,2.93
2019-02-11T09:42:09.355Z,2.93
2019-02-11T09:44:37.337Z,3.57
2019-02-11T09:47:05.402Z,2.97
2019-02-11T09:49:33.416Z,3.30
2019-02-11T09:52:01.514Z,3.05
2019-02-11T09:54:29.455Z,2.60
2019-02-11T09:56:57.415Z,2.77
2019-02-11T09:59:25.364Z,3.13
2019-02-11T10:01:53.429Z,2.83
2019-02-11T10:04:21.353Z,3.97
2019-02-11T10:06:49.311Z,3.00
2019-02-11T10:09:17.300Z,3.10
2019-02-11T10:11:45.354Z,3.57
2019-02-11T10:14:13.303Z,3.40
2019-02-11T10:16:41.334Z,3.47
2019-02-11T10:19:09.301Z,3.70
2019-02-11T10:21:37.350Z,2.87
2019-02-11T10:24:05.344Z,3.27
2019-02-11T10:26:33.293Z,4.37
2019-02-11T10:29:01.257Z,3.43
2019-02-11T10:31:29.588Z,2.63
2019-02-11T10:33:57.580Z,2.73
2019-02-11T10:36:25.603Z,3.97
2019-02-11T10:38:53.600Z,3.63
2019-02-11T10:41:21.540Z,2.43
2019-02-11T10:43:49.543Z,3.37
2019-02-11T10:46:20.955Z,2.50
2019-02-11T10:48:47.261Z,3.03
2019-02-11T10:51:15.528Z,3.20
2019-02-11T10:53:43.499Z,3.63
2019-02-11T10:56:11.540Z,2.70
2019-02-11T10:58:39.521Z,2.70
2019-02-11T11:01:07.471Z,3.90
2019-02-11T11:03:35.446Z,3.27
2019-02-11T11:06:03.347Z,2.50
2019-02-11T11:08:32.247Z,3.93
2019-02-11T11:11:00.213Z,3.65
2019-02-11T11:13:28.268Z,3.85
2019-02-11T11:15:56.282Z,3.17
2019-02-11T11:18:24.268Z,4.40
2019-02-11T11:20:52.221Z,3.55
2019-02-11T11:23:20.240Z,3.63
2019-02-11T11:25:48.183Z,4.75
2019-02-11T11:28:16.186Z,3.73
2019-02-11T11:30:44.134Z,3.33
2019-02-11T11:33:12.113Z,2.80
2019-02-11T11:35:40.097Z,4.07
2019-02-11T11:38:08.048Z,4.17
2019-02-11T11:40:36.059Z,3.40
2019-02-11T11:43:03.997Z,3.10
2019-02-11T11:45:31.964Z,3.30
2019-02-11T11:47:59.984Z,4.67
2019-02-11T11:50:27.942Z,3.13
2019-02-11T11:52:55.928Z,3.47
2019-02-11T11:55:23.979Z,2.90
2019-02-11T11:57:51.916Z,3.77
2019-02-11T12:06:03.220Z,4.27
2019-02-11T12:08:31.207Z,4.20
2019-02-11T12:10:59.169Z,2.70
2019-02-11T12:13:27.209Z,3.70
2019-02-11T12:15:55.336Z,3.97
2019-02-11T12:18:23.352Z,3.20
2019-02-11T12:23:59.298Z,3.37
2019-02-11T12:29:46.937Z,3.00
2019-02-11T12:32:24.306Z,2.63
2019-02-11T12:37:47.165Z,2.73
2019-02-11T12:40:15.141Z,3.27
2019-02-11T12:45:50.648Z,3.10
2019-02-11T12:48:18.938Z,2.57
2019-02-11T12:53:54.481Z,3.10
2019-02-11T12:59:25.394Z,2.23
2019-02-11T13:01:53.471Z,2.10
2019-02-11T13:07:29.007Z,3.00
2019-02-11T13:09:56.954Z,2.50
2019-02-11T13:12:24.961Z,3.10
2019-02-11T13:14:52.999Z,3.17
2019-02-11T13:17:33.243Z,3.03
2019-02-11T13:20:06.767Z,2.10
2019-02-11T13:22:22.312Z,3.60
2019-02-11T13:24:50.217Z,3.63
2019-02-11T13:27:18.189Z,2.57
2019-02-11T13:29:46.892Z,2.40
2019-02-11T13:32:15.411Z,2.53
2019-02-11T13:34:43.353Z,2.53
2019-02-11T13:37:11.309Z,2.43
2019-02-11T13:39:39.361Z,3.33
2019-02-11T13:45:15.674Z,2.50
2019-02-11T13:48:02.740Z,2.63
2019-02-11T13:50:30.821Z,2.50
2019-02-11T13:52:58.807Z,2.57
2019-02-11T13:55:30.608Z,2.33
2019-02-11T13:57:56.397Z,2.70
2019-02-11T14:03:06.567Z,2.30
2019-02-11T14:05:34.507Z,2.90
2019-02-11T14:08:02.571Z,3.30
2019-02-11T14:10:30.573Z,2.53
2019-02-11T14:12:58.588Z,2.80
2019-02-11T14:18:20.298Z,2.07
2019-02-11T14:20:49.860Z,3.63
2019-02-11T14:23:37.096Z,5.27
2019-02-11T14:26:05.083Z,2.67
2019-02-11T14:28:33.625Z,3.40
2019-02-11T14:33:55.565Z,3.50
2019-02-11T14:36:23.672Z,2.93
2019-02-11T14:41:45.659Z,2.80
2019-02-11T14:44:14.139Z,3.27
2019-02-11T14:46:43.350Z,2.83
2019-02-11T14:49:11.350Z,2.30
2019-02-11T14:51:39.298Z,2.93
2019-02-11T14:54:07.526Z,4.40
2019-02-11T14:59:43.312Z,1.80
2019-02-11T15:05:19.026Z,2.93
2019-02-11T15:10:54.557Z,2.23
2019-02-11T15:16:30.269Z,3.00
2019-02-11T15:18:58.305Z,2.13
2019-02-11T15:21:26.269Z,2.03
2019-02-11T15:24:13.609Z,2.50
2019-02-11T15:26:41.791Z,2.40
2019-02-11T15:29:28.853Z,2.57
2019-02-11T15:32:11.097Z,2.57
2019-02-11T15:34:26.802Z,2.03
2019-02-11T15:36:54.844Z,1.70
2019-02-11T15:42:35.950Z,1.60
2019-02-11T15:45:04.403Z,2.00
2019-02-11T15:47:32.786Z,2.07
2019-02-11T15:50:01.100Z,1.90
2019-02-11T15:52:32.996Z,1.80
2019-02-11T15:55:00.997Z,2.30
2019-02-11T16:00:05.112Z,1.87
2019-02-11T16:05:27.036Z,1.50
2019-02-11T16:10:49.952Z,1.60
2019-02-11T16:16:12.583Z,1.70
2019-02-11T16:21:34.876Z,1.63
2019-02-11T16:26:56.679Z,2.13
2019-02-11T16:29:24.682Z,1.37
2019-02-11T16:35:00.750Z,2.33
2019-02-11T16:40:36.246Z,1.22
2019-02-11T16:43:04.232Z,1.77
2019-02-11T16:45:32.202Z,1.10
2019-02-11T16:48:00.180Z,0.90
2019-02-11T16:50:28.180Z,1.23
2019-02-11T16:52:56.246Z,1.30
2019-02-11T16:55:24.232Z,1.00
2019-02-11T17:00:46.159Z,1.17
2019-02-11T17:03:14.143Z,1.00
2019-02-11T17:08:35.840Z,1.10
2019-02-11T17:11:03.830Z,1.17
2019-02-11T17:19:33.114Z,1.30
2019-02-11T17:22:01.098Z,1.33
2019-02-11T17:24:29.046Z,1.30
2019-02-11T17:26:57.081Z,1.30
2019-02-11T17:29:25.156Z,1.53
2019-02-11T17:31:53.199Z,1.00
2019-02-11T17:34:21.153Z,1.10
2019-02-11T17:36:49.132Z,1.70
2019-02-11T17:39:17.085Z,1.37
2019-02-11T17:41:45.112Z,2.20
2019-02-11T17:44:13.160Z,1.33
2019-02-11T17:46:41.174Z,2.40
2019-02-11T17:49:17.431Z,1.40
2019-02-11T17:51:38.797Z,1.27
2019-02-11T17:57:01.160Z,1.37
2019-02-11T18:02:23.578Z,1.17
2019-02-11T18:04:51.582Z,1.27
2019-02-11T18:10:13.354Z,1.37
2019-02-11T18:15:35.742Z,1.60
2019-02-11T18:20:57.346Z,3.30
2019-02-11T18:23:25.288Z,1.50
2019-02-11T18:28:30.280Z,1.77
2019-02-11T18:31:28.958Z,1.57
2019-02-11T18:34:16.891Z,2.63
2019-02-11T18:36:47.033Z,1.40
2019-02-11T18:39:20.621Z,1.67
2019-02-11T18:41:50.962Z,1.50
2019-02-11T18:44:26.200Z,1.80
2019-02-11T18:47:16.348Z,1.50
2019-02-11T18:50:04.581Z,1.40
2019-02-11T18:55:28.640Z,1.30
2019-02-11T18:58:18.836Z,1.80
2019-02-11T19:03:36.202Z,1.57
2019-02-11T19:05:54.931Z,1.53
2019-02-11T19:08:56.737Z,5.45
2019-02-11T19:11:12.254Z,2.53
2019-02-11T19:13:40.336Z,2.67
2019-02-11T19:16:08.301Z,2.33
2019-02-11T19:21:30.461Z,3.17
2019-02-11T19:23:58.446Z,3.10
2019-02-11T19:29:34.059Z,2.43
2019-02-11T19:32:02.065Z,3.83
2019-02-11T19:34:30.080Z,2.20
2019-02-11T19:36:58.103Z,2.60
2019-02-11T19:39:26.048Z,2.50
2019-02-11T19:41:54.074Z,3.20
2019-02-11T19:44:22.170Z,3.22
2019-02-11T19:46:50.174Z,2.70
2019-02-11T19:49:18.127Z,2.60
2019-02-11T19:51:46.112Z,3.27
2019-02-11T19:57:21.559Z,3.90
2019-02-11T19:59:49.473Z,3.63
2019-02-11T20:02:17.471Z,2.80
2019-02-11T20:04:45.475Z,2.53
2019-02-11T20:07:13.458Z,2.47
2019-02-11T20:09:41.431Z,2.60
2019-02-11T20:12:09.398Z,2.80
2019-02-11T20:14:37.371Z,2.67
2019-02-11T20:17:05.304Z,2.60
2019-02-11T20:19:33.298Z,5.83
2019-02-11T20:22:20.439Z,3.40
2019-02-11T20:24:48.357Z,3.03
2019-02-11T20:27:16.301Z,3.10
2019-02-11T20:29:44.274Z,3.07
2019-02-11T20:32:31.309Z,2.97
2019-02-11T20:34:59.502Z,3.37
2019-02-11T20:40:35.036Z,3.57
2019-02-11T20:43:02.987Z,3.30
2019-02-11T20:45:30.983Z,4.90
2019-02-11T20:47:58.907Z,3.20
2019-02-11T20:53:20.645Z,3.30
2019-02-11T20:55:48.651Z,3.13
2019-02-11T21:01:11.024Z,3.03
2019-02-11T21:03:38.984Z,3.57
2019-02-11T21:09:01.238Z,3.13
2019-02-11T21:14:23.306Z,3.00
2019-02-11T21:16:51.262Z,3.70
2019-02-11T21:22:26.832Z,4.60
2019-02-11T21:25:06.427Z,3.87
2019-02-11T21:27:24.318Z,3.40
2019-02-11T21:29:52.309Z,3.77
2019-02-11T21:35:14.823Z,3.77
2019-02-11T21:37:42.801Z,2.80
2019-02-11T21:43:04.855Z,2.73
2019-02-11T21:45:32.814Z,2.77
2019-02-11T21:48:19.886Z,3.67
2019-02-11T21:50:47.870Z,2.77
2019-02-11T21:56:09.905Z,2.80
2019-02-11T21:58:37.868Z,3.13
2019-02-11T22:01:05.936Z,3.13
2019-02-11T22:12:14.302Z,2.90
2019-02-11T22:17:48.767Z,2.70
2019-02-11T22:23:11.433Z,2.40
2019-02-11T22:25:39.410Z,2.37
2019-02-11T22:31:14.902Z,2.60
2019-02-11T22:39:44.325Z,2.50
2019-02-11T22:45:06.583Z,2.40
2019-02-11T22:50:28.842Z,2.57
2019-02-11T22:58:45.364Z,2.67
2019-02-11T23:04:07.452Z,2.27
2019-02-11T23:06:35.458Z,2.73
2019-02-11T23:14:36.114Z,2.67
2019-02-11T23:17:04.110Z,2.70
2019-02-11T23:22:25.764Z,2.62
2019-02-11T23:30:26.299Z,2.60
2019-02-11T23:32:54.356Z,2.70
2019-02-11T23:35:22.348Z,2.30
2019-02-11T23:40:44.420Z,2.73
2019-02-11T23:43:12.434Z,2.23
2019-02-11T23:45:40.350Z,3.57
2019-02-11T23:48:08.381Z,2.60
2019-02-11T23:50:36.334Z,3.17
2019-02-11T23:53:04.257Z,3.10
2019-02-11T23:55:32.234Z,2.53
